High temp

Not for real navigation. The accuracy of this data is not assured See disclaimer for more information



ICAO NAME COUNTRY WIND Kt GUST Kt VIS m TEMP/DEW C BARO METAR
YBDV 10 0 9999 43/11 29.56 YBDV 240400Z AUTO 06010KT 010V090 //// // ////// 43/11 Q1001
YTEF 3 0 9999 41/18 29.56 YTEF 240400Z AUTO 04003KT 9999 // SCT087 41/18 Q1001
YNWN 5 0 9999 41/10 29.62 YNWN 240400Z AUTO 16005KT 080V220 9999 // NCD 41/10 Q1003
YBAS Alice Springs Aerodrome Australia 19 0 9999 41/8 29.62 YBAS 240430Z 11019KT CAVOK 41/08 Q1003
YMEK 11 21 9999 40/11 29.65 YMEK 240400Z AUTO 35011G21KT 9999 // NCD 40/11 Q1004

Show more